Terminal Aerodrome Forecast
Issued by NWS

Home | Current Version | Previous Version | Text Only | Print | Product List | Glossary On
Versions: 1 2 3 4 5 6 7 8 9 10 11 12 13
672
FTUS42 KGSP 130520
TAFAND
TAF
KAND 130520Z 1306/1406 29009KT P6SM FEW250
     FM131100 29004KT P6SM FEW250
     FM140200 03004KT P6SM FEW150=

USA.gov is the U.S. government's official web portal to all federal, state and local government web resources and services.